createdAt,value
2022-07-28T00:00:40.165Z,101095.06
2022-07-28T00:04:02.094Z,101102.50
2022-07-28T00:07:23.602Z,101098.66
2022-07-28T00:10:45.819Z,101098.91
2022-07-28T00:14:07.006Z,101103.47
2022-07-28T00:17:29.454Z,101095.81
2022-07-28T00:20:50.796Z,101094.31
2022-07-28T00:24:12.403Z,101100.84
2022-07-28T00:27:33.928Z,101098.09
2022-07-28T00:30:55.668Z,101086.78
2022-07-28T00:34:18.767Z,101100.31
2022-07-28T00:37:40.243Z,101084.03
2022-07-28T00:41:12.234Z,101082.91
2022-07-28T00:44:33.522Z,101088.81
2022-07-28T00:47:54.635Z,101092.41
2022-07-28T00:51:18.375Z,101096.22
2022-07-28T00:54:39.949Z,101089.94
2022-07-28T00:58:02.103Z,101095.25
2022-07-28T01:01:24.103Z,101092.91
2022-07-28T01:04:45.618Z,101092.25
2022-07-28T01:08:14.217Z,101089.59
2022-07-28T01:11:43.834Z,101086.22
2022-07-28T01:15:14.051Z,101094.56
2022-07-28T01:18:43.019Z,101090.22
2022-07-28T01:22:10.527Z,101088.91
2022-07-28T01:25:48.068Z,101090.47
2022-07-28T01:29:23.526Z,101088.72
2022-07-28T01:32:53.984Z,101088.44
2022-07-28T01:36:18.406Z,101085.41
2022-07-28T01:39:42.718Z,101080.28
2022-07-28T01:43:08.906Z,101088.88
2022-07-28T01:46:34.999Z,101084.47
2022-07-28T01:50:00.184Z,101088.19
2022-07-28T01:53:24.050Z,101085.31
2022-07-28T01:56:48.622Z,101080.94
2022-07-28T02:00:12.320Z,101068.31
2022-07-28T02:03:35.022Z,101074.66
2022-07-28T02:06:58.601Z,101068.41
2022-07-28T02:10:21.909Z,101067.41
2022-07-28T02:13:44.851Z,101057.06
2022-07-28T02:17:11.757Z,101059.56
2022-07-28T02:20:33.450Z,101059.09
2022-07-28T02:23:57.263Z,101066.19
2022-07-28T02:27:35.631Z,101068.44
2022-07-28T02:31:02.570Z,101067.25
2022-07-28T02:34:27.939Z,101062.84
2022-07-28T02:37:55.288Z,101064.28
2022-07-28T02:41:23.325Z,101059.91
2022-07-28T02:44:48.049Z,101066.38
2022-07-28T02:48:14.146Z,101071.47
2022-07-28T02:51:38.418Z,101058.91
2022-07-28T02:55:01.781Z,101049.97
2022-07-28T02:58:28.499Z,101041.59
2022-07-28T03:01:51.738Z,101051.16
2022-07-28T03:05:14.905Z,101060.75
2022-07-28T03:08:37.125Z,101061.22
2022-07-28T03:11:58.328Z,101053.56
2022-07-28T03:15:20.881Z,101067.34
2022-07-28T03:18:41.961Z,101069.09
2022-07-28T03:22:04.066Z,101070.84
2022-07-28T03:25:29.311Z,101079.00
2022-07-28T03:28:52.565Z,101078.75
2022-07-28T03:32:14.902Z,101074.81
2022-07-28T03:35:40.785Z,101074.41
2022-07-28T03:39:04.646Z,101079.06
2022-07-28T03:42:28.226Z,101084.41
2022-07-28T03:45:50.343Z,101084.41
2022-07-28T03:49:13.266Z,101079.91
2022-07-28T03:52:34.411Z,101082.66
2022-07-28T03:55:57.547Z,101079.56
2022-07-28T03:59:19.671Z,101086.53
2022-07-28T04:02:43.679Z,101087.88
2022-07-28T04:06:06.597Z,101075.72
2022-07-28T04:09:27.796Z,101079.31
2022-07-28T04:12:50.705Z,101071.00
2022-07-28T04:16:12.132Z,101077.03
2022-07-28T04:19:33.849Z,101074.63
2022-07-28T04:22:57.937Z,101081.38
2022-07-28T04:26:19.053Z,101083.91
2022-07-28T04:29:40.063Z,101084.63
2022-07-28T04:33:02.268Z,101088.03
2022-07-28T04:36:23.345Z,101092.88
2022-07-28T04:39:46.313Z,101098.88
2022-07-28T04:43:07.547Z,101097.81
2022-07-28T04:46:28.605Z,101100.69
2022-07-28T04:49:49.877Z,101091.47
2022-07-28T04:53:11.344Z,101091.03
2022-07-28T04:56:34.333Z,101090.00
2022-07-28T04:59:56.753Z,101086.28
2022-07-28T05:03:18.909Z,101092.59
2022-07-28T05:06:41.331Z,101092.34
2022-07-28T05:10:05.182Z,101100.03
2022-07-28T05:13:33.415Z,101105.25
2022-07-28T05:16:55.388Z,101098.72
2022-07-28T05:20:17.373Z,101101.31
2022-07-28T05:23:38.939Z,101104.19
2022-07-28T05:27:00.155Z,101101.56
2022-07-28T05:30:24.186Z,101093.56
2022-07-28T05:33:45.513Z,101104.22
2022-07-28T05:37:07.097Z,101098.72
2022-07-28T05:40:29.932Z,101116.72
2022-07-28T05:43:52.027Z,101106.56
2022-07-28T05:47:16.470Z,101109.53
2022-07-28T05:50:37.961Z,101117.91
2022-07-28T05:53:59.234Z,101112.84
2022-07-28T05:57:20.425Z,101117.84
2022-07-28T06:00:41.570Z,101120.56
2022-07-28T06:04:26.736Z,101137.97
2022-07-28T06:07:46.220Z,101141.19
2022-07-28T06:11:11.337Z,101145.47
2022-07-28T06:14:32.719Z,101142.00
2022-07-28T06:17:55.418Z,101148.41
2022-07-28T06:21:19.531Z,101147.38
2022-07-28T06:24:40.336Z,101148.44
2022-07-28T06:28:03.247Z,101150.47
2022-07-28T06:31:25.488Z,101155.44
2022-07-28T06:34:46.791Z,101155.84
2022-07-28T06:38:09.873Z,101156.13
2022-07-28T06:41:32.389Z,101160.84
2022-07-28T06:44:58.944Z,101150.66
2022-07-28T06:48:23.597Z,101151.53
2022-07-28T06:51:46.045Z,101151.59
2022-07-28T06:55:09.576Z,101146.69
2022-07-28T06:58:32.541Z,101157.25
2022-07-28T07:01:53.705Z,101158.84
2022-07-28T07:05:15.624Z,101158.38
2022-07-28T07:08:38.232Z,101152.78
2022-07-28T07:12:02.205Z,101156.94
2022-07-28T07:15:23.222Z,101143.09
2022-07-28T07:18:44.641Z,101145.13
2022-07-28T07:22:05.788Z,101144.59
2022-07-28T07:25:26.830Z,101139.19
2022-07-28T07:28:49.590Z,101141.94
2022-07-28T07:32:11.185Z,101141.09
2022-07-28T07:35:33.384Z,101137.41
2022-07-28T07:38:54.729Z,101134.72
2022-07-28T07:42:15.877Z,101137.09
2022-07-28T07:45:41.549Z,101135.06
2022-07-28T07:49:02.926Z,101130.59
2022-07-28T07:52:24.296Z,101133.31
2022-07-28T07:55:46.149Z,101133.97
2022-07-28T07:59:08.333Z,101121.75
2022-07-28T08:02:30.987Z,101135.44
2022-07-28T08:05:56.352Z,101133.72
2022-07-28T08:09:19.403Z,101134.47
2022-07-28T08:12:40.968Z,101133.00
2022-07-28T08:16:03.284Z,101128.31
2022-07-28T08:19:26.373Z,101127.72
2022-07-28T08:22:49.028Z,101130.41
2022-07-28T08:26:10.122Z,101130.50
2022-07-28T08:29:31.584Z,101130.13
2022-07-28T08:32:56.480Z,101134.53
2022-07-28T08:36:19.896Z,101125.31
2022-07-28T08:39:40.793Z,101126.13
2022-07-28T08:43:08.637Z,101124.81
2022-07-28T08:46:35.516Z,101117.09
2022-07-28T08:49:59.434Z,101109.53
2022-07-28T08:53:22.306Z,101103.63
2022-07-28T08:56:47.974Z,101109.38
2022-07-28T09:00:11.992Z,101106.47
2022-07-28T09:03:33.333Z,101109.34
2022-07-28T09:06:55.973Z,101098.13
2022-07-28T09:10:19.655Z,101114.91
2022-07-28T09:13:41.061Z,101103.81
2022-07-28T09:17:05.355Z,101109.56
2022-07-28T09:20:29.591Z,101108.25
2022-07-28T09:23:51.332Z,101110.16
2022-07-28T09:27:15.116Z,101103.53
2022-07-28T09:30:53.510Z,101103.25
2022-07-28T09:34:18.019Z,101093.47
2022-07-28T09:37:39.253Z,101102.41
2022-07-28T09:41:02.697Z,101096.06
2022-07-28T09:44:27.288Z,101108.75
2022-07-28T09:47:48.681Z,101096.88
2022-07-28T09:51:12.980Z,101092.25
2022-07-28T09:54:40.281Z,101091.44
2022-07-28T09:58:10.821Z,101089.47
2022-07-28T10:01:35.807Z,101087.31
2022-07-28T10:05:00.144Z,101087.84
2022-07-28T10:08:21.237Z,101087.63
2022-07-28T10:11:42.530Z,101077.84
2022-07-28T10:15:34.264Z,101077.91
2022-07-28T10:18:59.449Z,101076.34
2022-07-28T10:22:22.946Z,101067.88
2022-07-28T10:25:45.436Z,101065.69
2022-07-28T10:29:08.784Z,101064.03
2022-07-28T10:32:35.680Z,101045.72
2022-07-28T10:36:00.355Z,101056.31
2022-07-28T10:39:27.114Z,101048.50
2022-07-28T10:42:48.667Z,101041.75
2022-07-28T10:46:16.105Z,101053.00
2022-07-28T10:49:39.938Z,101048.13
2022-07-28T10:53:07.064Z,101044.28
2022-07-28T10:56:37.907Z,101051.78
2022-07-28T11:00:13.317Z,101046.13
2022-07-28T11:03:42.456Z,101038.38
2022-07-28T11:07:11.373Z,101032.09
2022-07-28T11:10:46.364Z,101039.09
2022-07-28T11:14:32.108Z,101026.13
2022-07-28T11:18:15.099Z,101026.84
2022-07-28T11:21:39.653Z,101018.78
2022-07-28T11:25:19.972Z,101021.31
2022-07-28T11:29:16.416Z,101022.75
2022-07-28T11:32:59.364Z,101021.59
2022-07-28T11:36:21.748Z,101015.59
2022-07-28T11:39:44.194Z,101010.09
2022-07-28T11:43:36.414Z,101008.66
2022-07-28T11:47:17.496Z,101007.13
2022-07-28T11:50:40.091Z,100996.34
2022-07-28T11:54:02.581Z,100992.78
2022-07-28T11:57:28.888Z,100998.09
2022-07-28T12:00:50.052Z,100992.97
2022-07-28T12:04:14.401Z,100985.72
2022-07-28T12:07:48.855Z,100983.66
2022-07-28T12:11:10.470Z,100981.44
2022-07-28T12:14:39.179Z,100965.75
2022-07-28T12:18:05.411Z,100973.75
2022-07-28T12:21:46.192Z,100973.41
2022-07-28T12:25:13.409Z,100974.47
2022-07-28T12:28:35.591Z,100968.22
2022-07-28T12:31:59.997Z,100965.47
2022-07-28T12:35:23.511Z,100955.25
2022-07-28T12:38:46.461Z,100956.16
2022-07-28T12:42:10.516Z,100949.03
2022-07-28T12:45:45.032Z,100955.41
2022-07-28T12:49:20.878Z,100955.78
2022-07-28T12:52:43.475Z,100952.03
2022-07-28T12:56:05.892Z,100948.19
2022-07-28T12:59:33.525Z,100941.06
2022-07-28T13:02:56.659Z,100935.09
2022-07-28T13:06:18.394Z,100940.00
2022-07-28T13:09:47.052Z,100947.44
2022-07-28T13:13:10.124Z,100932.16
2022-07-28T13:16:34.204Z,100943.72
2022-07-28T13:20:05.338Z,100938.63
2022-07-28T13:23:26.293Z,100932.34
2022-07-28T13:26:47.336Z,100936.78
2022-07-28T13:30:10.623Z,100937.16
2022-07-28T13:33:33.265Z,100932.81
2022-07-28T13:36:56.297Z,100926.69
2022-07-28T13:40:17.652Z,100922.53
2022-07-28T13:43:38.743Z,100915.69
2022-07-28T13:47:01.668Z,100919.41
2022-07-28T13:50:24.692Z,100913.81
2022-07-28T13:53:45.971Z,100902.06
2022-07-28T13:57:09.029Z,100893.22
2022-07-28T14:00:31.517Z,100887.25
2022-07-28T14:03:57.837Z,100881.81
2022-07-28T14:07:21.612Z,100890.53
2022-07-28T14:10:42.697Z,100890.41
2022-07-28T14:14:12.469Z,100888.97
2022-07-28T14:17:44.911Z,100885.09
2022-07-28T14:21:09.211Z,100882.63
2022-07-28T14:24:32.061Z,100882.47
2022-07-28T14:27:55.251Z,100880.31
2022-07-28T14:31:17.954Z,100872.06
2022-07-28T14:34:40.290Z,100878.84
2022-07-28T14:38:49.767Z,100875.97
2022-07-28T14:41:48.496Z,100868.75
2022-07-28T14:45:12.985Z,100864.84
2022-07-28T14:48:34.778Z,100871.53
2022-07-28T14:51:57.406Z,100863.44
2022-07-28T14:55:18.842Z,100862.22
2022-07-28T14:58:41.428Z,100851.31
2022-07-28T15:02:02.559Z,100860.97
2022-07-28T15:05:25.388Z,100856.72
2022-07-28T15:08:47.522Z,100847.50
2022-07-28T15:12:09.122Z,100847.63
2022-07-28T15:15:31.653Z,100854.72
2022-07-28T15:18:53.208Z,100854.25
2022-07-28T15:22:15.197Z,100847.38
2022-07-28T15:25:36.821Z,100846.97
2022-07-28T15:28:58.028Z,100842.47
2022-07-28T15:32:28.322Z,100845.34
2022-07-28T15:35:58.901Z,100850.22
2022-07-28T15:39:23.015Z,100855.13
2022-07-28T15:42:44.035Z,100836.84
2022-07-28T15:46:09.209Z,100836.56
2022-07-28T15:49:32.023Z,100835.38
2022-07-28T15:52:53.823Z,100839.22
2022-07-28T15:56:14.999Z,100839.00
2022-07-28T15:59:49.322Z,100830.97
2022-07-28T16:03:12.389Z,100825.59
2022-07-28T16:06:52.604Z,100821.84
2022-07-28T16:10:14.088Z,100823.06
2022-07-28T16:13:37.041Z,100816.72
2022-07-28T16:16:59.193Z,100816.03
2022-07-28T16:20:20.738Z,100817.94
2022-07-28T16:23:44.166Z,100819.53
2022-07-28T16:27:05.671Z,100815.22
2022-07-28T16:30:27.640Z,100818.75
2022-07-28T16:33:49.081Z,100818.44
2022-07-28T16:37:10.411Z,100815.91
2022-07-28T16:40:34.235Z,100823.72
2022-07-28T16:43:58.185Z,100815.63
2022-07-28T16:47:19.495Z,100815.94
2022-07-28T16:50:43.472Z,100826.78
2022-07-28T16:54:05.103Z,100817.88
2022-07-28T16:57:27.363Z,100813.69
2022-07-28T17:00:48.666Z,100812.59
2022-07-28T17:04:09.983Z,100816.56
2022-07-28T17:07:31.860Z,100821.25
2022-07-28T17:10:52.765Z,100818.59
2022-07-28T17:14:17.021Z,100813.75
2022-07-28T17:17:38.753Z,100813.13
2022-07-28T17:21:00.974Z,100811.81
2022-07-28T17:24:22.340Z,100814.72
2022-07-28T17:27:48.198Z,100817.94
2022-07-28T17:31:11.631Z,100819.41
2022-07-28T17:34:34.568Z,100830.72
2022-07-28T17:37:55.834Z,100815.84
2022-07-28T17:41:16.840Z,100824.03
2022-07-28T17:44:38.310Z,100828.16
2022-07-28T17:48:00.810Z,100820.88
2022-07-28T17:51:22.594Z,100825.97
2022-07-28T17:55:01.596Z,100828.69
2022-07-28T17:58:28.083Z,100827.28
2022-07-28T18:01:51.196Z,100825.94
2022-07-28T18:05:14.213Z,100821.81
2022-07-28T18:08:35.484Z,100831.16
2022-07-28T18:11:58.919Z,100825.97
2022-07-28T18:15:22.357Z,100834.53
2022-07-28T18:18:43.937Z,100835.41
2022-07-28T18:22:06.870Z,100843.69
2022-07-28T18:25:29.839Z,100842.31
2022-07-28T18:28:51.881Z,100842.22
2022-07-28T18:32:14.490Z,100845.84
2022-07-28T18:35:35.944Z,100840.84
2022-07-28T18:39:00.322Z,100840.63
2022-07-28T18:42:21.790Z,100837.63
2022-07-28T18:45:43.217Z,100834.63
2022-07-28T18:49:04.520Z,100836.13
2022-07-28T18:52:26.944Z,100848.72
2022-07-28T18:55:51.214Z,100842.22
2022-07-28T18:59:12.558Z,100838.94
2022-07-28T19:02:37.824Z,100839.25
2022-07-28T19:05:59.318Z,100839.97
2022-07-28T19:09:20.824Z,100845.56
2022-07-28T19:12:43.650Z,100845.03
2022-07-28T19:16:06.283Z,100847.47
2022-07-28T19:19:29.023Z,100843.09
2022-07-28T19:22:52.136Z,100845.84
2022-07-28T19:26:13.353Z,100852.44
2022-07-28T19:29:37.176Z,100855.19
2022-07-28T19:32:58.559Z,100859.88
2022-07-28T19:36:20.439Z,100853.81
2022-07-28T19:39:45.889Z,100856.84
2022-07-28T19:43:07.174Z,100867.00
2022-07-28T19:46:31.726Z,100866.94
2022-07-28T19:49:53.202Z,100871.09
2022-07-28T19:53:15.035Z,100869.75
2022-07-28T19:56:39.366Z,100878.13
2022-07-28T20:00:02.112Z,100880.56
2022-07-28T20:04:03.430Z,100888.03
2022-07-28T20:07:15.884Z,100877.25
2022-07-28T20:10:37.922Z,100883.00
2022-07-28T20:13:59.374Z,100892.97
2022-07-28T20:17:37.314Z,100891.94
2022-07-28T20:21:00.907Z,100903.94
2022-07-28T20:24:22.348Z,100902.97
2022-07-28T20:27:43.916Z,100888.00
2022-07-28T20:31:05.250Z,100894.09
2022-07-28T20:34:26.616Z,100896.75
2022-07-28T20:37:49.199Z,100892.22
2022-07-28T20:41:10.512Z,100890.34
2022-07-28T20:44:32.402Z,100884.00
2022-07-28T20:47:55.995Z,100901.69
2022-07-28T20:51:17.897Z,100891.41
2022-07-28T20:54:40.446Z,100897.53
2022-07-28T20:58:02.021Z,100899.94
2022-07-28T21:01:26.021Z,100896.38
2022-07-28T21:04:49.680Z,100895.28
2022-07-28T21:08:16.345Z,100902.94
2022-07-28T21:11:40.012Z,100898.56
2022-07-28T21:15:01.423Z,100903.16
2022-07-28T21:18:22.506Z,100911.41
2022-07-28T21:21:43.673Z,100915.38
2022-07-28T21:25:07.265Z,100919.28
2022-07-28T21:28:47.353Z,100927.19
2022-07-28T21:32:08.691Z,100924.13
2022-07-28T21:35:30.018Z,100928.16
2022-07-28T21:38:51.377Z,100934.94
2022-07-28T21:42:12.514Z,100940.50
2022-07-28T21:45:35.496Z,100939.00
2022-07-28T21:48:58.714Z,100951.06
2022-07-28T21:52:22.136Z,100950.63
2022-07-28T21:55:43.212Z,100951.72
2022-07-28T21:59:05.194Z,100953.16
2022-07-28T22:02:29.106Z,100958.63
2022-07-28T22:05:50.270Z,100953.56
2022-07-28T22:09:11.407Z,100965.78
2022-07-28T22:12:32.801Z,100965.69
2022-07-28T22:15:54.401Z,100961.47
2022-07-28T22:19:16.876Z,100970.00
2022-07-28T22:22:38.415Z,100967.03
2022-07-28T22:25:59.419Z,100970.97
2022-07-28T22:29:21.328Z,100973.69
2022-07-28T22:32:42.648Z,100982.09
2022-07-28T22:36:05.973Z,100972.31
2022-07-28T22:39:26.967Z,100982.72
2022-07-28T22:42:49.255Z,100982.06
2022-07-28T22:46:10.963Z,100983.34
2022-07-28T22:49:32.465Z,100985.50
2022-07-28T22:52:54.844Z,100979.59
2022-07-28T22:56:16.911Z,100981.88
2022-07-28T22:59:39.829Z,100986.81
2022-07-28T23:03:01.328Z,100989.66
2022-07-28T23:06:23.261Z,100993.94
2022-07-28T23:09:45.713Z,100989.41
2022-07-28T23:13:06.925Z,100995.22
2022-07-28T23:16:28.576Z,100994.94
2022-07-28T23:19:50.014Z,100997.75
2022-07-28T23:23:11.426Z,100994.28
2022-07-28T23:26:34.529Z,100990.97
2022-07-28T23:29:55.433Z,100986.97
2022-07-28T23:33:55.442Z,100993.84
2022-07-28T23:36:58.041Z,100988.59
2022-07-28T23:40:19.589Z,100987.47
2022-07-28T23:43:42.829Z,100993.75
2022-07-28T23:47:04.437Z,100994.81
2022-07-28T23:50:26.142Z,100987.38
2022-07-28T23:53:47.573Z,100986.34
2022-07-28T23:57:09.028Z,100979.63
